Aeroporto :
LOGIN :

Iscrizione | Disclaimer

   EN    FR    IT 

 










Sommario :    VFR   VFR Marginale   IFR   IFR Intensivo   IFR Molto Intensivo
Visibilità : 
Base nubi : 
>= 8 km
>= 3000ft
5 / 8 km
1000 / 3000 ft
1500m / 5 km
500 / 1000 ft
800 / 1500m
200 / 500 ft
< 800m
< 200 ft
Simboli :   Temporali  Nebbia  Neve Forte  Precipitazioni Forti  Vento > 20 kt
SIGMETs :   Varie  Temporali  Ghiacco  Turbolenza  Onda orograficha  Ceneri Vulcaniche







- Altitudine del aeroporto : 370 ft


EBBE - Beauvechain AB

ULTIMO METAR :
  • 191425Z AUTO 31010KT 6000 FEW024/// 18/13 Q1006 WHT

METARs OBSOLETI :
  • 191403Z AUTO 31007KT 7000 FEW024/// SCT039/// 18/13 Q1006 WHT
  • 191355Z AUTO 32008KT 8000 FEW024/// 18/13 Q1006 BLU
  • 191350Z AUTO 31008KT 7000 FEW024/// 18/13 Q1006 WHT
  • 191325Z AUTO 32008KT 8000 FEW029/// 18/13 Q1006 BLU
  • 191319Z AUTO 32006KT 9999 FEW027/// SCT120/// 18/13 Q1006 BLU
  • 191308Z AUTO 31006KT 7000 FEW025/// SCT065/// 18/13 Q1006 WHT
  • 191255Z AUTO 32004KT 9999 FEW022/// SCT028/// 19/13 Q1006 BLU
  • 191225Z AUTO 35006KT 7000 FEW019/// SCT075/// BKN120/// 17/12 Q1006 WHT
  • 191155Z AUTO 34005KT 6000 SCT017/// BKN021/// 17/12 Q1006 WHT

Previsioni scadute.
Nessun NOTAM noto per questo aeroporto.



MetMap, La meteo Aeronautica in un colpo d'occhio ! - Copyright ORBIFLY Dicembre 2007 - Disclaimer

ORBIFLY MET'MAP TEAM :

Programmazione e sviluppo : Alexandra Zaïnal
Concezione e sviluppo : Baudouin d'Aumeries
Co-Programmazione e sviluppo : Marc-Olivier Méhu
Supporto tecnico e logistico : Manuel Goepfert
Aiuto per la traduzione : Arnaldo La Scala

Contatto : metmap@orbifly.com




FONTI E CREDITI :

   NOAA